Time;durP1;ratioP1;P1;durP2;ratioP2;P2;SDS_P1;SDS_P2;PMS_P1;PMS_P2;Temp;Humidity;BMP_temperature;BMP_pressure;BME280_temperature;BME280_humidity;BME280_pressure;Samples;Min_cycle;Max_cycle;Signal;HPM_P1;HPM_P2
2023/12/25 00:02:20;;;;;;;1.25;0.32;;;10.70;99.90;;;;;;5018821;28;20018;-62
2023/12/25 00:04:45;;;;;;;0.55;0.45;;;10.70;99.90;;;;;;5019052;28;20101;-62
2023/12/25 00:07:11;;;;;;;1.30;0.40;;;10.70;99.90;;;;;;5019399;28;20120;-62
2023/12/25 00:09:36;;;;;;;0.68;0.40;;;10.80;99.90;;;;;;5019462;28;20026;-62
2023/12/25 00:12:02;;;;;;;3.75;0.70;;;10.70;99.90;;;;;;5019747;28;20033;-62
2023/12/25 00:14:28;;;;;;;4.80;1.85;;;10.70;99.90;;;;;;5019572;28;20030;-62
2023/12/25 00:16:53;;;;;;;0.93;0.60;;;10.70;99.90;;;;;;5018734;28;20080;-62
2023/12/25 00:19:19;;;;;;;5.25;0.73;;;10.60;99.90;;;;;;5019288;28;20041;-62
2023/12/25 00:21:44;;;;;;;0.95;0.40;;;10.70;99.90;;;;;;5018728;28;20024;-62
2023/12/25 00:24:10;;;;;;;1.30;0.40;;;10.60;99.90;;;;;;5018453;28;20018;-62
2023/12/25 00:26:35;;;;;;;2.42;0.68;;;10.70;99.90;;;;;;5019217;28;20018;-62
2023/12/25 00:29:01;;;;;;;2.60;0.73;;;10.70;99.90;;;;;;5018352;28;20052;-62
2023/12/25 00:32:18;;;;;;;4.47;0.60;;;10.70;99.90;;;;;;5013223;28;20041;-62
2023/12/25 00:34:43;;;;;;;0.40;0.40;;;10.70;99.90;;;;;;4998679;28;20116;-62
2023/12/25 00:37:09;;;;;;;2.53;0.50;;;10.70;99.90;;;;;;4998552;28;20118;-62
2023/12/25 00:39:34;;;;;;;2.60;0.47;;;10.70;99.90;;;;;;4998503;28;20026;-62
2023/12/25 00:42:00;;;;;;;3.13;0.60;;;10.70;99.90;;;;;;4998436;28;20077;-62
2023/12/25 00:44:25;;;;;;;3.50;0.47;;;10.70;99.90;;;;;;4998864;28;20057;-62
2023/12/25 00:46:51;;;;;;;1.35;0.55;;;10.80;99.90;;;;;;4999799;28;20023;-62
2023/12/25 00:49:18;;;;;;;2.53;0.80;;;10.70;99.90;;;;;;4998228;28;20029;-62
2023/12/25 00:51:44;;;;;;;0.85;0.50;;;10.70;99.90;;;;;;4999221;28;20022;-62
2023/12/25 00:54:09;;;;;;;5.15;0.70;;;10.70;99.90;;;;;;4999057;28;20041;-61
2023/12/25 00:56:35;;;;;;;3.33;0.47;;;10.60;99.90;;;;;;4999292;28;20033;-62
2023/12/25 00:59:00;;;;;;;1.63;0.50;;;10.60;99.90;;;;;;4999000;28;20037;-62
2023/12/25 01:01:26;;;;;;;0.57;0.50;;;10.60;99.90;;;;;;4998136;28;20034;-62
2023/12/25 01:03:51;;;;;;;2.30;0.30;;;10.60;99.90;;;;;;4999280;28;20022;-62
2023/12/25 01:06:17;;;;;;;6.75;0.60;;;10.50;99.90;;;;;;4997882;28;20077;-61
2023/12/25 01:08:42;;;;;;;0.77;0.50;;;10.50;99.90;;;;;;4998705;28;20074;-61
2023/12/25 01:11:08;;;;;;;1.55;0.63;;;10.40;99.90;;;;;;4998232;28;20037;-61
2023/12/25 01:13:34;;;;;;;0.90;0.52;;;10.40;99.90;;;;;;4998057;28;20027;-61
2023/12/25 01:15:59;;;;;;;1.15;0.60;;;10.40;99.90;;;;;;4998216;28;20033;-61
2023/12/25 01:18:25;;;;;;;3.53;0.77;;;10.40;99.90;;;;;;4998567;28;20035;-61
2023/12/25 01:20:50;;;;;;;0.75;0.30;;;10.40;99.90;;;;;;4997869;28;20029;-61
2023/12/25 01:23:16;;;;;;;1.65;0.68;;;10.40;99.90;;;;;;4997801;28;20033;-61
2023/12/25 01:25:41;;;;;;;1.13;0.40;;;10.40;99.90;;;;;;4998445;28;20031;-61
2023/12/25 01:28:07;;;;;;;2.30;0.52;;;10.50;99.90;;;;;;4998955;28;20027;-61
2023/12/25 01:30:33;;;;;;;0.45;0.40;;;10.50;99.90;;;;;;4998403;28;20041;-61
2023/12/25 01:32:58;;;;;;;1.02;0.35;;;10.50;99.90;;;;;;4997416;28;20022;-61
2023/12/25 01:35:24;;;;;;;1.90;0.50;;;10.50;99.90;;;;;;5009371;28;20031;-61
2023/12/25 01:37:50;;;;;;;2.05;0.60;;;10.60;99.90;;;;;;4997144;28;20037;-61
2023/12/25 01:40:16;;;;;;;2.95;0.50;;;10.60;99.90;;;;;;4997325;28;20018;-61
2023/12/25 01:42:42;;;;;;;1.70;0.70;;;10.60;99.90;;;;;;4998247;28;20027;-62
2023/12/25 01:45:10;;;;;;;0.93;0.57;;;10.70;99.90;;;;;;4998120;28;20098;-61
2023/12/25 01:47:36;;;;;;;0.55;0.38;;;10.70;99.90;;;;;;4998642;28;20022;-61
2023/12/25 01:50:04;;;;;;;6.70;0.60;;;10.60;99.90;;;;;;4998026;28;20033;-61
2023/12/25 01:52:29;;;;;;;1.48;0.65;;;10.60;99.90;;;;;;5013466;28;20026;-62
2023/12/25 01:55:03;;;;;;;1.30;0.57;;;10.50;99.90;;;;;;4998146;28;20034;-61
2023/12/25 01:57:33;;;;;;;1.02;0.85;;;10.60;99.90;;;;;;4998279;28;20085;-62
2023/12/25 01:59:58;;;;;;;0.63;0.50;;;10.60;99.90;;;;;;4997827;28;20028;-61
2023/12/25 02:02:24;;;;;;;2.83;0.60;;;10.60;99.90;;;;;;5013527;28;20026;-61
2023/12/25 02:04:49;;;;;;;5.35;0.70;;;10.60;99.90;;;;;;4997030;28;20022;-62
2023/12/25 02:07:15;;;;;;;2.88;0.98;;;10.60;99.90;;;;;;4997056;28;20065;-61
2023/12/25 02:09:46;;;;;;;1.58;0.38;;;10.60;99.90;;;;;;4996888;28;20037;-62
2023/12/25 02:12:12;;;;;;;1.45;0.40;;;10.60;99.90;;;;;;4997768;28;20033;-61
2023/12/25 02:14:38;;;;;;;1.30;0.65;;;10.60;99.90;;;;;;4997242;28;20081;-62
2023/12/25 02:17:03;;;;;;;1.33;0.60;;;10.50;99.90;;;;;;4996004;28;20034;-61
2023/12/25 02:19:36;;;;;;;0.30;0.30;;;10.60;99.90;;;;;;5012965;28;20026;-61
2023/12/25 02:22:02;;;;;;;2.30;0.50;;;10.50;99.90;;;;;;4997272;28;20022;-61
2023/12/25 02:24:30;;;;;;;1.63;0.68;;;10.50;99.90;;;;;;4996974;28;20026;-61
2023/12/25 02:26:56;;;;;;;3.25;0.40;;;10.50;99.90;;;;;;4996758;28;20032;-61
2023/12/25 02:29:22;;;;;;;1.88;0.57;;;10.60;99.90;;;;;;4997511;28;20030;-61
2023/12/25 02:31:49;;;;;;;1.85;0.60;;;10.60;99.90;;;;;;4996728;28;20026;-62
2023/12/25 02:34:15;;;;;;;1.02;0.50;;;10.60;99.90;;;;;;4997792;28;20026;-61
2023/12/25 02:36:41;;;;;;;3.60;0.50;;;10.70;99.90;;;;;;4996580;28;20079;-62
2023/12/25 02:39:06;;;;;;;0.82;0.57;;;10.70;99.90;;;;;;4996489;28;20038;-61
2023/12/25 02:41:32;;;;;;;5.00;0.60;;;10.70;99.90;;;;;;4996522;28;20033;-62
2023/12/25 02:43:57;;;;;;;2.38;0.35;;;10.60;99.90;;;;;;4997477;28;20027;-61
2023/12/25 02:46:23;;;;;;;3.47;0.77;;;10.70;99.90;;;;;;5013810;28;20061;-61
2023/12/25 02:48:48;;;;;;;0.30;0.30;;;10.60;99.90;;;;;;5012911;28;20050;-61
2023/12/25 02:51:14;;;;;;;2.45;0.52;;;10.70;99.90;;;;;;4997426;28;20053;-62
2023/12/25 02:53:39;;;;;;;1.33;0.60;;;10.70;99.90;;;;;;4996489;28;20026;-61
2023/12/25 02:56:05;;;;;;;2.47;0.73;;;10.70;99.90;;;;;;4997565;28;20137;-61
2023/12/25 02:58:30;;;;;;;0.35;0.30;;;10.70;99.90;;;;;;4996433;28;20026;-62
2023/12/25 03:00:56;;;;;;;2.90;0.50;;;10.70;99.90;;;;;;4996258;28;20031;-61
2023/12/25 03:03:22;;;;;;;2.33;0.55;;;10.70;99.90;;;;;;4997106;28;20069;-61
2023/12/25 03:05:47;;;;;;;2.15;0.50;;;10.60;99.90;;;;;;4997227;28;20073;-61
2023/12/25 03:08:13;;;;;;;1.45;0.40;;;10.60;99.90;;;;;;4996428;28;20045;-61
2023/12/25 03:10:38;;;;;;;1.65;0.68;;;10.60;99.90;;;;;;4996574;28;20026;-61
2023/12/25 03:13:04;;;;;;;5.30;0.57;;;10.60;99.90;;;;;;4996365;28;20045;-62
2023/12/25 03:15:29;;;;;;;2.63;0.65;;;10.60;99.90;;;;;;5013227;28;20027;-62
2023/12/25 03:17:55;;;;;;;0.63;0.40;;;10.60;99.90;;;;;;4996479;28;20046;-61
2023/12/25 03:20:22;;;;;;;0.80;0.40;;;10.60;99.90;;;;;;4996775;28;20030;-62
2023/12/25 03:22:48;;;;;;;4.30;0.77;;;10.60;99.90;;;;;;4997030;28;20022;-61
2023/12/25 03:25:14;;;;;;;0.68;0.30;;;10.60;99.90;;;;;;4996530;28;20019;-61
2023/12/25 03:27:39;;;;;;;1.85;0.40;;;10.70;99.90;;;;;;4996198;28;20018;-62
2023/12/25 03:30:06;;;;;;;0.52;0.22;;;10.70;99.90;;;;;;5000634;28;20034;-62
2023/12/25 03:32:33;;;;;;;0.57;0.50;;;10.70;99.90;;;;;;4999710;28;20026;-62
2023/12/25 03:34:59;;;;;;;0.85;0.30;;;10.70;99.90;;;;;;5000580;28;20026;-62
2023/12/25 03:37:25;;;;;;;1.50;0.50;;;10.60;99.90;;;;;;5000545;28;20038;-62
2023/12/25 03:39:51;;;;;;;3.08;0.40;;;10.60;99.90;;;;;;4999456;28;20037;-61
2023/12/25 03:42:17;;;;;;;0.30;0.30;;;10.60;99.90;;;;;;5000525;28;20018;-62
2023/12/25 03:44:43;;;;;;;0.55;0.40;;;10.60;99.90;;;;;;5000694;28;20086;-61
2023/12/25 03:47:08;;;;;;;2.08;0.30;;;10.60;99.90;;;;;;5000260;28;20026;-61
2023/12/25 03:49:34;;;;;;;0.52;0.32;;;10.70;99.90;;;;;;4999804;28;20026;-61
2023/12/25 03:52:05;;;;;;;0.40;0.30;;;10.70;99.90;;;;;;5000299;28;20026;-62
2023/12/25 03:54:31;;;;;;;;;;;10.70;99.90;;;;;;5000135;28;20081;-61
2023/12/25 03:56:57;;;;;;;0.40;0.38;;;10.70;99.90;;;;;;4999719;28;19906;-62
2023/12/25 03:59:22;;;;;;;2.28;0.40;;;10.70;99.90;;;;;;5000173;28;20026;-61
2023/12/25 04:01:48;;;;;;;0.82;0.32;;;10.80;99.90;;;;;;4999220;28;20032;-61
2023/12/25 04:04:14;;;;;;;0.82;0.20;;;10.80;99.90;;;;;;4999419;28;20042;-62
2023/12/25 04:06:39;;;;;;;1.45;0.40;;;10.80;99.90;;;;;;4999478;28;20027;-61
2023/12/25 04:09:05;;;;;;;3.92;0.38;;;10.80;99.90;;;;;;4999452;28;20084;-61
2023/12/25 04:11:30;;;;;;;2.13;0.50;;;10.80;99.90;;;;;;4999385;28;20058;-61
2023/12/25 04:13:56;;;;;;;1.70;0.50;;;10.80;99.90;;;;;;4999328;28;20030;-61
2023/12/25 04:16:27;;;;;;;0.50;0.30;;;10.80;99.90;;;;;;4998995;28;20042;-61
2023/12/25 04:18:53;;;;;;;0.57;0.35;;;10.80;99.90;;;;;;4999678;28;20054;-62
2023/12/25 04:21:22;;;;;;;0.90;0.20;;;10.80;99.90;;;;;;4998792;28;20029;-62
2023/12/25 04:23:48;;;;;;;0.43;0.30;;;10.80;99.90;;;;;;4999151;28;20045;-61
2023/12/25 04:26:14;;;;;;;0.43;0.30;;;10.80;99.90;;;;;;5000048;28;20023;-61
2023/12/25 04:28:39;;;;;;;0.40;0.20;;;10.80;99.90;;;;;;4999501;28;20030;-61
2023/12/25 04:31:05;;;;;;;0.32;0.30;;;10.70;99.90;;;;;;4998869;28;20030;-62
2023/12/25 04:33:30;;;;;;;3.83;0.22;;;10.80;99.90;;;;;;4998953;28;20054;-62
2023/12/25 04:35:56;;;;;;;0.57;0.30;;;10.80;99.90;;;;;;4999488;28;20028;-62
2023/12/25 04:38:21;;;;;;;0.30;0.13;;;10.90;99.90;;;;;;4998548;28;20030;-62
2023/12/25 04:40:49;;;;;;;0.60;0.20;;;10.80;99.90;;;;;;4997770;28;20029;-62
2023/12/25 04:43:15;;;;;;;0.80;0.20;;;10.80;99.90;;;;;;4999340;28;20102;-61
2023/12/25 04:45:40;;;;;;;0.60;0.20;;;10.80;99.90;;;;;;4998474;28;20105;-62
2023/12/25 04:48:06;;;;;;;1.02;0.32;;;10.80;99.90;;;;;;4999485;28;20026;-60
2023/12/25 04:50:33;;;;;;;0.45;0.30;;;10.80;99.90;;;;;;4998949;28;20026;-61
2023/12/25 04:52:59;;;;;;;0.20;0.20;;;10.80;99.90;;;;;;4998238;28;20077;-61
2023/12/25 04:55:24;;;;;;;0.47;0.40;;;10.80;99.90;;;;;;4998577;28;20022;-62
2023/12/25 04:57:50;;;;;;;0.68;0.20;;;10.80;99.90;;;;;;4998127;28;20014;-62
2023/12/25 05:00:15;;;;;;;0.52;0.20;;;10.80;99.90;;;;;;5024466;23;20017;-70
2023/12/25 05:02:41;;;;;;;0.20;0.10;;;10.80;99.90;;;;;;5018404;28;20037;-70
2023/12/25 05:05:07;;;;;;;0.17;0.10;;;10.80;99.90;;;;;;5018589;28;20037;-70
2023/12/25 05:07:32;;;;;;;0.35;0.10;;;10.80;99.90;;;;;;5017501;28;20029;-70
2023/12/25 05:09:57;;;;;;;1.38;0.30;;;10.70;99.90;;;;;;5017477;28;20120;-70
2023/12/25 05:12:23;;;;;;;0.30;0.30;;;10.80;99.90;;;;;;5018698;28;20029;-70
2023/12/25 05:14:49;;;;;;;0.15;0.13;;;10.80;99.90;;;;;;5017788;28;20026;-70
2023/12/25 05:17:16;;;;;;;0.20;0.20;;;10.90;99.90;;;;;;5017407;28;20026;-70
2023/12/25 05:19:42;;;;;;;2.15;0.20;;;10.90;99.90;;;;;;5017453;28;20028;-70
2023/12/25 05:22:08;;;;;;;0.55;0.10;;;11.00;99.90;;;;;;5018140;28;20085;-70
2023/12/25 05:24:33;;;;;;;0.52;0.10;;;11.00;99.90;;;;;;5018136;28;20022;-70
2023/12/25 05:27:00;;;;;;;2.25;0.10;;;10.90;99.90;;;;;;5018467;28;20098;-70
2023/12/25 05:29:25;;;;;;;1.55;0.30;;;11.00;99.90;;;;;;5017625;28;20122;-70
2023/12/25 05:31:51;;;;;;;0.15;0.10;;;11.00;99.90;;;;;;5017400;28;20127;-70
2023/12/25 05:34:16;;;;;;;0.20;0.20;;;11.00;99.90;;;;;;5017620;28;20032;-70
2023/12/25 05:36:42;;;;;;;1.25;0.32;;;11.00;99.90;;;;;;5017061;28;20030;-70
2023/12/25 05:39:08;;;;;;;0.35;0.20;;;11.00;99.90;;;;;;5017695;28;20053;-70
2023/12/25 05:41:34;;;;;;;1.48;0.17;;;11.00;99.90;;;;;;5016891;28;20022;-70
2023/12/25 05:44:00;;;;;;;0.32;0.20;;;11.00;99.90;;;;;;5016877;28;20065;-70
2023/12/25 05:46:25;;;;;;;0.90;0.50;;;11.00;99.90;;;;;;5017344;28;20029;-70
2023/12/25 05:48:51;;;;;;;0.17;0.17;;;11.00;99.90;;;;;;5016977;28;20032;-70
2023/12/25 05:51:16;;;;;;;0.30;0.17;;;11.00;99.90;;;;;;5017555;28;20061;-70
2023/12/25 05:53:42;;;;;;;0.13;0.13;;;11.00;99.90;;;;;;5017469;28;20061;-70
2023/12/25 05:56:07;;;;;;;0.55;0.20;;;10.90;99.90;;;;;;5018155;28;20071;-70
2023/12/25 05:58:33;;;;;;;0.17;0.17;;;10.90;99.90;;;;;;5017580;28;20099;-70
2023/12/25 06:00:59;;;;;;;0.10;0.10;;;10.90;99.90;;;;;;5016515;28;20088;-70
2023/12/25 06:03:25;;;;;;;0.70;0.30;;;10.90;99.90;;;;;;5016866;28;20029;-70
2023/12/25 06:05:50;;;;;;;0.25;0.20;;;10.90;99.90;;;;;;5016606;28;20050;-70
2023/12/25 06:08:16;;;;;;;0.15;0.13;;;10.90;99.90;;;;;;5016620;28;20061;-70
2023/12/25 06:10:42;;;;;;;0.40;0.22;;;10.90;99.90;;;;;;5018038;28;20022;-70
2023/12/25 06:13:08;;;;;;;0.47;0.20;;;11.00;99.90;;;;;;5017603;28;20033;-70
2023/12/25 06:15:33;;;;;;;0.13;0.13;;;11.00;99.90;;;;;;5016480;28;20030;-71
2023/12/25 06:17:59;;;;;;;1.02;0.10;;;11.10;99.90;;;;;;5016364;28;20034;-71
2023/12/25 06:20:25;;;;;;;0.30;0.25;;;11.10;99.90;;;;;;5016407;28;20022;-70
2023/12/25 06:22:51;;;;;;;0.10;0.10;;;11.10;99.90;;;;;;5016793;28;20029;-71
2023/12/25 06:25:16;;;;;;;1.20;0.10;;;11.10;99.90;;;;;;5017836;28;20092;-70
2023/12/25 06:27:42;;;;;;;1.60;0.82;;;11.20;99.90;;;;;;5016514;28;20018;-71
2023/12/25 06:30:08;;;;;;;0.10;0.10;;;11.20;99.90;;;;;;5017683;28;20065;-70
2023/12/25 06:32:33;;;;;;;0.20;0.10;;;11.20;99.90;;;;;;5017143;28;20029;-70
2023/12/25 06:34:59;;;;;;;0.28;0.10;;;11.20;99.90;;;;;;5017547;28;20073;-70
2023/12/25 06:37:24;;;;;;;1.02;0.43;;;11.10;99.90;;;;;;5016649;28;20102;-70
2023/12/25 06:39:50;;;;;;;0.20;0.10;;;11.10;99.90;;;;;;5016420;28;20033;-70
2023/12/25 06:42:15;;;;;;;0.30;0.10;;;11.00;99.90;;;;;;5016483;28;20038;-70
2023/12/25 06:44:41;;;;;;;0.10;0.10;;;11.10;99.90;;;;;;5016490;28;20029;-70
2023/12/25 06:47:06;;;;;;;0.10;0.10;;;11.10;99.90;;;;;;5017344;28;20018;-70
2023/12/25 06:49:32;;;;;;;0.60;0.15;;;11.10;99.90;;;;;;5016364;28;20033;-71
2023/12/25 06:51:58;;;;;;;0.32;0.15;;;11.10;99.90;;;;;;5017107;28;20030;-70
2023/12/25 06:54:24;;;;;;;0.10;0.10;;;11.10;99.90;;;;;;5016560;28;20026;-70
2023/12/25 06:56:49;;;;;;;0.10;0.10;;;11.10;99.90;;;;;;5016930;28;20026;-70
2023/12/25 06:59:15;;;;;;;1.10;0.10;;;11.10;99.90;;;;;;5016853;28;20057;-70
2023/12/25 07:01:40;;;;;;;0.47;0.10;;;11.00;99.90;;;;;;5016916;28;20053;-70
2023/12/25 07:04:08;;;;;;;0.25;0.10;;;11.00;99.90;;;;;;5019246;28;20023;-71
2023/12/25 07:06:33;;;;;;;0.10;0.10;;;11.00;99.90;;;;;;5020721;28;20053;-71
2023/12/25 07:08:59;;;;;;;0.15;0.15;;;11.00;99.90;;;;;;5019809;28;20022;-70
2023/12/25 07:11:25;;;;;;;0.38;0.38;;;11.00;99.90;;;;;;5020115;28;20030;-71
2023/12/25 07:13:50;;;;;;;0.10;0.10;;;11.00;99.90;;;;;;5020635;28;20026;-70
2023/12/25 07:16:20;;;;;;;0.20;0.15;;;11.00;99.90;;;;;;5019539;28;20160;-70
2023/12/25 07:18:47;;;;;;;0.40;0.10;;;11.00;99.90;;;;;;5020633;28;20022;-70
2023/12/25 07:21:12;;;;;;;1.25;0.20;;;11.00;99.90;;;;;;5019874;28;20018;-70
2023/12/25 07:23:38;;;;;;;1.95;0.28;;;11.00;99.90;;;;;;5020715;28;20073;-70
2023/12/25 07:26:04;;;;;;;1.17;0.20;;;10.90;99.90;;;;;;5020463;28;20034;-70
2023/12/25 07:28:30;;;;;;;0.50;0.10;;;10.90;99.90;;;;;;5020381;28;20093;-71
2023/12/25 07:30:55;;;;;;;0.10;0.10;;;11.00;99.90;;;;;;5020185;28;20120;-70
2023/12/25 07:33:21;;;;;;;0.43;0.10;;;10.90;99.90;;;;;;5019760;28;20026;-71
2023/12/25 07:35:46;;;;;;;0.00;0.00;;;10.90;99.90;;;;;;5019278;28;20106;-70
2023/12/25 07:38:12;;;;;;;0.52;0.20;;;10.90;99.90;;;;;;5019245;28;20022;-70
2023/12/25 07:40:37;;;;;;;0.17;0.10;;;10.90;99.90;;;;;;5019178;28;20030;-70
2023/12/25 07:43:03;;;;;;;0.25;0.10;;;10.80;99.90;;;;;;5020062;28;20030;-70
2023/12/25 07:45:29;;;;;;;0.15;0.15;;;10.90;99.90;;;;;;5019240;28;20018;-70
2023/12/25 07:47:54;;;;;;;0.30;0.10;;;10.90;99.90;;;;;;5019114;28;20029;-70
2023/12/25 07:50:20;;;;;;;2.10;0.20;;;10.80;99.90;;;;;;5019098;28;20033;-70
2023/12/25 07:52:46;;;;;;;0.98;0.10;;;10.80;99.90;;;;;;5019021;28;20025;-71
2023/12/25 07:55:11;;;;;;;0.13;0.10;;;10.80;99.90;;;;;;5019328;28;20022;-70
2023/12/25 07:57:37;;;;;;;0.10;0.10;;;10.80;99.90;;;;;;5019473;28;20034;-70
2023/12/25 08:00:03;;;;;;;0.10;0.10;;;10.70;99.90;;;;;;5019475;28;20032;-70
2023/12/25 08:02:28;;;;;;;0.25;0.10;;;10.70;99.90;;;;;;5019078;28;20030;-70
2023/12/25 08:04:54;;;;;;;0.10;0.10;;;10.70;99.90;;;;;;5019736;28;20064;-71
2023/12/25 08:07:19;;;;;;;0.50;0.08;;;10.70;99.90;;;;;;5018562;28;20110;-70
2023/12/25 08:09:45;;;;;;;0.47;0.10;;;10.80;99.90;;;;;;5017795;28;20030;-70
2023/12/25 08:12:10;;;;;;;0.38;0.10;;;10.80;99.90;;;;;;5019199;28;20036;-70
2023/12/25 08:14:36;;;;;;;0.08;0.08;;;10.80;99.90;;;;;;5017551;28;20026;-70
2023/12/25 08:17:01;;;;;;;0.20;0.20;;;10.90;99.90;;;;;;5018454;28;20036;-70
2023/12/25 08:19:27;;;;;;;0.13;0.00;;;10.90;99.90;;;;;;5019423;28;20037;-70
2023/12/25 08:21:52;;;;;;;0.00;0.00;;;10.90;99.90;;;;;;5018404;28;20041;-70
2023/12/25 08:24:19;;;;;;;1.95;0.20;;;10.90;99.90;;;;;;5018574;28;20026;-70
2023/12/25 08:26:45;;;;;;;0.15;0.00;;;10.90;99.90;;;;;;5018370;28;20082;-71
2023/12/25 08:29:11;;;;;;;0.10;0.10;;;10.80;99.90;;;;;;5019535;28;20103;-70
2023/12/25 08:31:39;;;;;;;0.63;0.00;;;10.90;99.90;;;;;;5018386;28;20064;-70
2023/12/25 08:34:04;;;;;;;0.13;0.00;;;10.80;99.90;;;;;;5018238;28;20158;-70
2023/12/25 08:36:30;;;;;;;0.17;0.17;;;10.80;99.90;;;;;;5018248;28;20026;-70
2023/12/25 08:38:55;;;;;;;0.85;0.00;;;10.80;99.90;;;;;;5018240;28;20053;-70
2023/12/25 08:41:21;;;;;;;0.10;0.10;;;10.70;99.90;;;;;;5018055;28;20057;-70
2023/12/25 08:43:46;;;;;;;1.15;0.30;;;10.80;99.90;;;;;;5019251;28;20100;-70
2023/12/25 08:46:12;;;;;;;0.17;0.08;;;10.80;99.90;;;;;;5018323;28;20134;-70
2023/12/25 08:48:37;;;;;;;0.10;0.08;;;10.80;99.90;;;;;;5018102;28;20036;-70
2023/12/25 08:51:03;;;;;;;0.10;0.10;;;10.80;99.90;;;;;;5019167;28;20026;-70
2023/12/25 08:53:28;;;;;;;1.20;0.10;;;10.90;99.90;;;;;;5018192;28;20207;-70
2023/12/25 08:55:55;;;;;;;0.10;0.00;;;10.90;99.90;;;;;;5017893;28;20034;-70
2023/12/25 08:58:21;;;;;;;0.10;0.10;;;10.90;99.90;;;;;;5018667;28;20022;-70
2023/12/25 09:00:47;;;;;;;0.15;0.10;;;10.90;99.90;;;;;;5018693;28;20030;-70
2023/12/25 09:03:12;;;;;;;0.32;0.08;;;10.90;99.90;;;;;;5017788;28;20083;-70
2023/12/25 09:05:39;;;;;;;0.20;0.00;;;10.90;99.90;;;;;;5018332;28;20033;-70
2023/12/25 09:08:06;;;;;;;0.00;0.00;;;10.90;99.90;;;;;;5017715;28;20025;-70
2023/12/25 09:10:32;;;;;;;0.00;0.00;;;10.90;99.90;;;;;;5017478;28;20076;-70
2023/12/25 09:12:57;;;;;;;0.00;0.00;;;10.90;99.90;;;;;;5017665;28;20021;-70
2023/12/25 09:15:23;;;;;;;0.05;0.05;;;11.00;99.90;;;;;;5017625;28;20029;-70
2023/12/25 09:17:50;;;;;;;0.52;0.00;;;11.00;99.90;;;;;;5018534;28;20052;-70
2023/12/25 09:20:16;;;;;;;0.73;0.10;;;11.00;99.90;;;;;;5017367;28;20026;-70
2023/12/25 09:22:42;;;;;;;0.82;0.10;;;11.00;99.90;;;;;;5017235;28;20032;-70
2023/12/25 09:25:07;;;;;;;0.15;0.10;;;11.00;99.90;;;;;;5017351;28;20018;-70
2023/12/25 09:27:33;;;;;;;0.00;0.00;;;11.00;99.90;;;;;;5017940;28;20018;-64
2023/12/25 09:29:59;;;;;;;2.92;0.20;;;11.00;99.90;;;;;;5017110;28;20096;-64
2023/12/25 09:32:27;;;;;;;0.28;0.10;;;11.00;99.90;;;;;;5018067;28;20030;-64
2023/12/25 09:34:52;;;;;;;0.00;0.00;;;11.10;99.90;;;;;;5017968;28;20022;-64
2023/12/25 09:37:18;;;;;;;0.85;0.10;;;11.10;99.90;;;;;;5017152;28;20022;-64
2023/12/25 09:39:43;;;;;;;0.10;0.05;;;11.10;99.90;;;;;;5017291;28;20033;-63
2023/12/25 09:42:10;;;;;;;0.08;0.00;;;11.20;99.90;;;;;;5017917;28;20049;-64
2023/12/25 09:44:39;;;;;;;0.13;0.10;;;11.10;99.90;;;;;;5017245;28;20076;-63
2023/12/25 09:47:08;;;;;;;0.00;0.00;;;11.10;99.90;;;;;;5018380;28;20109;-64
2023/12/25 09:49:36;;;;;;;0.10;0.10;;;11.10;99.90;;;;;;5017906;28;20026;-64
2023/12/25 09:52:02;;;;;;;0.15;0.10;;;11.10;99.90;;;;;;5017772;28;20021;-64
2023/12/25 09:54:28;;;;;;;0.10;0.10;;;11.20;99.90;;;;;;5017660;28;20028;-64
2023/12/25 09:56:55;;;;;;;0.10;0.10;;;11.20;99.90;;;;;;5017490;28;20112;-65
2023/12/25 09:59:21;;;;;;;0.47;0.32;;;11.20;99.90;;;;;;5017549;28;20052;-64
2023/12/25 10:01:49;;;;;;;0.10;0.10;;;11.20;99.90;;;;;;5017625;28;20034;-64
2023/12/25 10:04:14;;;;;;;0.65;0.30;;;11.20;99.90;;;;;;5017604;28;20018;-64
2023/12/25 10:06:43;;;;;;;0.10;0.10;;;11.20;99.90;;;;;;5017423;28;20022;-64
2023/12/25 10:09:09;;;;;;;0.10;0.10;;;11.20;99.90;;;;;;5017606;28;20025;-65
2023/12/25 10:11:35;;;;;;;0.08;0.08;;;11.20;99.90;;;;;;5017366;28;20029;-64
2023/12/25 10:14:04;;;;;;;0.13;0.10;;;11.30;99.90;;;;;;5016581;28;20116;-64
2023/12/25 10:16:29;;;;;;;0.30;0.30;;;11.30;99.90;;;;;;5016614;28;20083;-65
2023/12/25 10:18:56;;;;;;;0.13;0.10;;;11.30;99.90;;;;;;5016475;28;20026;-64
2023/12/25 10:21:22;;;;;;;0.10;0.10;;;11.30;99.90;;;;;;5017263;28;20029;-64
2023/12/25 10:23:48;;;;;;;0.10;0.10;;;11.30;99.90;;;;;;5016515;28;20026;-64
2023/12/25 10:26:28;;;;;;;0.10;0.10;;;11.30;99.90;;;;;;5017345;28;20046;-64
2023/12/25 10:29:08;;;;;;;0.70;0.10;;;11.30;99.90;;;;;;5017560;28;20030;-64
2023/12/25 10:31:36;;;;;;;0.60;0.30;;;11.30;99.90;;;;;;5017447;28;20026;-64
2023/12/25 10:34:01;;;;;;;0.50;0.20;;;11.20;99.90;;;;;;5016497;28;20030;-64
2023/12/25 10:36:27;;;;;;;0.10;0.10;;;11.30;99.90;;;;;;5017219;28;20034;-64
2023/12/25 10:38:52;;;;;;;0.30;0.25;;;11.40;99.90;;;;;;5018416;28;20061;-64
2023/12/25 10:41:24;;;;;;;0.10;0.10;;;11.30;99.90;;;;;;5020332;28;20029;-64
2023/12/25 10:43:56;;;;;;;0.82;0.20;;;11.30;99.90;;;;;;5020296;28;20025;-64
2023/12/25 10:46:37;;;;;;;0.50;0.30;;;11.40;99.90;;;;;;5020229;28;20112;-63
2023/12/25 10:49:06;;;;;;;0.57;0.10;;;11.40;99.90;;;;;;5020745;28;20022;-64
2023/12/25 10:51:34;;;;;;;0.20;0.10;;;11.30;99.90;;;;;;5021296;28;20033;-63
2023/12/25 10:54:04;;;;;;;0.10;0.10;;;11.30;99.90;;;;;;5020038;28;20025;-64
2023/12/25 10:56:35;;;;;;;0.15;0.10;;;11.40;99.90;;;;;;5019964;28;20033;-63
2023/12/25 10:59:32;;;;;;;1.45;0.20;;;11.40;99.90;;;;;;5021126;28;20026;-64
2023/12/25 11:02:03;;;;;;;1.77;0.28;;;11.40;99.90;;;;;;5017019;28;20053;-64
2023/12/25 11:04:30;;;;;;;0.40;0.10;;;11.40;99.90;;;;;;5021200;28;20065;-64
2023/12/25 11:06:57;;;;;;;0.52;0.32;;;11.40;99.90;;;;;;5020738;28;20071;-64
2023/12/25 11:09:22;;;;;;;0.65;0.28;;;11.40;99.90;;;;;;5020743;28;20040;-64
2023/12/25 11:11:48;;;;;;;0.00;0.00;;;11.40;99.90;;;;;;5020133;28;20030;-63
2023/12/25 11:14:14;;;;;;;0.15;0.10;;;11.50;99.90;;;;;;5019735;28;20029;-64
2023/12/25 11:16:40;;;;;;;0.45;0.25;;;11.50;99.90;;;;;;5019860;28;20124;-64
2023/12/25 11:19:06;;;;;;;0.10;0.10;;;11.50;99.90;;;;;;5020412;28;20066;-64
2023/12/25 11:21:34;;;;;;;0.00;0.00;;;11.50;99.90;;;;;;5020629;28;20026;-64
2023/12/25 11:24:00;;;;;;;0.17;0.10;;;11.50;99.90;;;;;;5019691;28;20064;-63
2023/12/25 11:26:31;;;;;;;1.48;0.40;;;11.50;99.90;;;;;;5020452;28;20018;-64
2023/12/25 11:29:07;;;;;;;1.23;0.30;;;11.60;99.90;;;;;;5020279;28;20053;-64
2023/12/25 11:31:44;;;;;;;0.10;0.10;;;11.60;99.90;;;;;;5019461;28;20022;-64
2023/12/25 11:34:26;;;;;;;0.22;0.20;;;11.60;99.90;;;;;;5020205;28;20049;-64
2023/12/25 11:36:56;;;;;;;0.03;0.03;;;11.60;99.90;;;;;;5019425;28;20030;-65
2023/12/25 11:39:26;;;;;;;0.20;0.10;;;11.60;99.90;;;;;;5019573;28;20061;-65
2023/12/25 11:41:52;;;;;;;1.10;0.10;;;11.60;99.90;;;;;;5020042;28;20026;-64
2023/12/25 11:44:29;;;;;;;0.00;0.00;;;11.60;99.90;;;;;;5019185;28;20018;-64
2023/12/25 11:47:02;;;;;;;0.32;0.10;;;11.60;99.90;;;;;;5019904;28;20052;-64
2023/12/25 11:49:28;;;;;;;0.73;0.10;;;11.60;99.90;;;;;;5018997;28;20061;-64
2023/12/25 11:51:54;;;;;;;0.28;0.10;;;11.60;99.90;;;;;;5019886;28;20029;-64
2023/12/25 11:54:33;;;;;;;0.10;0.10;;;11.70;99.90;;;;;;5020099;28;20033;-64
2023/12/25 11:57:02;;;;;;;0.55;0.10;;;11.80;99.90;;;;;;5018929;28;20026;-64
2023/12/25 11:59:28;;;;;;;0.10;0.10;;;11.80;99.90;;;;;;5019619;28;20025;-64
2023/12/25 12:01:54;;;;;;;0.35;0.22;;;11.80;99.90;;;;;;5019750;28;20088;-64
2023/12/25 12:04:20;;;;;;;1.08;0.47;;;11.80;99.90;;;;;;5018945;28;20068;-64
2023/12/25 12:06:46;;;;;;;0.68;0.45;;;11.80;99.90;;;;;;5019851;28;20014;-64
2023/12/25 12:09:11;;;;;;;1.38;0.80;;;11.80;99.90;;;;;;5019918;28;20114;-64
2023/12/25 12:11:37;;;;;;;1.92;0.40;;;11.90;99.90;;;;;;5019936;28;20093;-64
2023/12/25 12:14:04;;;;;;;0.40;0.20;;;12.00;99.90;;;;;;5018620;28;20018;-63
2023/12/25 12:16:29;;;;;;;0.40;0.17;;;11.90;99.90;;;;;;5018851;28;20076;-64
2023/12/25 12:18:55;;;;;;;0.10;0.10;;;11.90;99.90;;;;;;5019538;28;20108;-64
2023/12/25 12:21:21;;;;;;;0.00;0.00;;;12.00;99.90;;;;;;5019409;28;20034;-64
2023/12/25 12:23:47;;;;;;;0.63;0.30;;;12.00;99.90;;;;;;5019234;28;20037;-64
2023/12/25 12:26:17;;;;;;;0.30;0.20;;;12.10;99.90;;;;;;5019179;28;20067;-64
2023/12/25 12:28:44;;;;;;;0.17;0.15;;;12.10;99.90;;;;;;5018797;28;20029;-64
2023/12/25 12:31:10;;;;;;;1.30;0.10;;;12.10;99.90;;;;;;5018193;28;20026;-64
2023/12/25 12:33:36;;;;;;;0.13;0.10;;;12.20;99.90;;;;;;5018162;28;20049;-64
2023/12/25 12:36:03;;;;;;;0.10;0.10;;;12.10;99.90;;;;;;5018094;28;20033;-64
2023/12/25 12:38:28;;;;;;;0.17;0.17;;;12.20;99.90;;;;;;5018387;28;20029;-64
2023/12/25 12:40:54;;;;;;;1.13;0.47;;;12.20;99.90;;;;;;5018188;28;20080;-64
2023/12/25 12:43:20;;;;;;;3.00;0.93;;;12.30;99.90;;;;;;5018371;28;20048;-64
2023/12/25 12:45:46;;;;;;;0.68;0.30;;;12.30;99.90;;;;;;5018014;28;20026;-64